Time;durP1;ratioP1;P1;durP2;ratioP2;P2;SDS_P1;SDS_P2;PMS_P1;PMS_P2;Temp;Humidity;BMP_temperature;BMP_pressure;BME280_temperature;BME280_humidity;BME280_pressure;Samples;Min_cycle;Max_cycle;Signal;HPM_P1;HPM_P2
2022/03/12 00:00:10;;;;;;;14.27;2.25;;;;;;;;;;5034116;28;20084;-62
2022/03/12 00:02:39;;;;;;;5.38;1.45;;;;;;;;;;5041569;28;20029;-62
2022/03/12 00:05:08;;;;;;;14.00;1.80;;;;;;;;;;5042201;28;20465;-62
2022/03/12 00:07:35;;;;;;;14.02;2.00;;;;;;;;;;5048137;28;20029;-62
2022/03/12 00:10:01;;;;;;;11.98;1.77;;;;;;;;;;5036615;28;20120;-62
2022/03/12 00:12:36;;;;;;;13.57;1.95;;;;;;;;;;5046745;28;20416;-62
2022/03/12 00:15:07;;;;;;;17.38;3.42;;;;;;;;;;5037583;28;20021;-62
2022/03/12 00:17:34;;;;;;;16.17;2.08;;;;;;;;;;5048346;28;20071;-62
2022/03/12 00:20:01;;;;;;;17.50;2.08;;;;;;;;;;5036270;28;20421;-62
2022/03/12 00:22:27;;;;;;;22.35;3.92;;;;;;;;;;5047607;28;20068;-62
2022/03/12 00:24:54;;;;;;;11.45;1.98;;;;;;;;;;5042058;28;20025;-62
2022/03/12 00:27:21;;;;;;;12.32;2.47;;;;;;;;;;5043569;28;20025;-62
2022/03/12 00:29:48;;;;;;;15.13;2.58;;;;;;;;;;5051033;28;20508;-62
2022/03/12 00:32:14;;;;;;;11.93;2.38;;;;;;;;;;5048811;28;20021;-62
2022/03/12 00:34:40;;;;;;;12.18;2.70;;;;;;;;;;5043357;28;20029;-62
2022/03/12 00:37:07;;;;;;;11.43;2.13;;;;;;;;;;5043877;28;20029;-62
2022/03/12 00:39:33;;;;;;;13.15;2.00;;;;;;;;;;5038117;28;20041;-62
2022/03/12 00:41:59;;;;;;;14.23;2.60;;;;;;;;;;5048379;28;20028;-62
2022/03/12 00:44:26;;;;;;;14.95;1.92;;;;;;;;;;5038273;28;20489;-62
2022/03/12 00:46:52;;;;;;;12.27;2.17;;;;;;;;;;5049870;28;20036;-62
2022/03/12 00:49:18;;;;;;;12.00;2.55;;;;;;;;;;5039917;28;20017;-62
2022/03/12 00:51:45;;;;;;;17.88;3.10;;;;;;;;;;5048672;28;20120;-62
2022/03/12 00:54:11;;;;;;;9.18;2.35;;;;;;;;;;5036899;28;20481;-62
2022/03/12 00:56:39;;;;;;;8.40;2.03;;;;;;;;;;5045618;28;20052;-62
2022/03/12 00:59:06;;;;;;;17.80;3.08;;;;;;;;;;5043102;28;20037;-62
2022/03/12 01:01:33;;;;;;;14.90;2.83;;;;;;;;;;5038041;28;20029;-62
2022/03/12 01:04:00;;;;;;;16.02;2.38;;;;;;;;;;5048661;28;20037;-62
2022/03/12 01:06:26;;;;;;;15.85;2.13;;;;;;;;;;5037945;28;20025;-62
2022/03/12 01:08:52;;;;;;;14.38;2.38;;;;;;;;;;5050440;28;20075;-62
2022/03/12 01:11:20;;;;;;;16.80;2.65;;;;;;;;;;5039726;28;20029;-62
2022/03/12 01:13:46;;;;;;;13.50;2.67;;;;;;;;;;5048148;28;20048;-62
2022/03/12 01:16:12;;;;;;;11.65;2.13;;;;;;;;;;5048274;28;20111;-62
2022/03/12 01:18:39;;;;;;;21.45;5.15;;;;;;;;;;5045433;28;20036;-62
2022/03/12 01:21:24;;;;;;;13.05;2.50;;;;;;;;;;5042214;28;20021;-62
2022/03/12 01:23:51;;;;;;;17.17;2.70;;;;;;;;;;5048170;28;20068;-62
2022/03/12 01:26:18;;;;;;;8.38;2.00;;;;;;;;;;5035731;28;20392;-62
2022/03/12 01:28:45;;;;;;;14.30;3.30;;;;;;;;;;5044383;28;20029;-62
2022/03/12 01:31:12;;;;;;;16.65;3.08;;;;;;;;;;5042482;28;20056;-62
2022/03/12 01:33:38;;;;;;;10.32;2.70;;;;;;;;;;5037597;28;20025;-62
2022/03/12 01:36:05;;;;;;;12.30;2.35;;;;;;;;;;5047389;28;20043;-62
2022/03/12 01:38:35;;;;;;;16.50;2.60;;;;;;;;;;5037366;28;20032;-62
2022/03/12 01:41:04;;;;;;;16.30;3.42;;;;;;;;;;5042097;28;20487;-62
2022/03/12 01:43:37;;;;;;;18.58;3.20;;;;;;;;;;5045254;28;20028;-62
2022/03/12 01:46:03;;;;;;;14.75;2.78;;;;;;;;;;5034782;28;20408;-62
2022/03/12 01:48:30;;;;;;;18.90;4.90;;;;;;;;;;5050135;28;20036;-62
2022/03/12 01:50:56;;;;;;;15.20;2.33;;;;;;;;;;5044435;28;20482;-62
2022/03/12 01:53:25;;;;;;;21.67;2.90;;;;;;;;;;5051225;28;20032;-62
2022/03/12 01:55:52;;;;;;;12.88;2.45;;;;;;;;;;5051523;28;20483;-62
2022/03/12 01:58:18;;;;;;;23.25;3.28;;;;;;;;;;5033360;28;20056;-62
2022/03/12 02:00:49;;;;;;;12.52;3.13;;;;;;;;;;5051386;28;20045;-62
2022/03/12 02:03:18;;;;;;;17.02;2.70;;;;;;;;;;5042254;28;20064;-62
2022/03/12 02:05:44;;;;;;;11.68;3.13;;;;;;;;;;5051477;28;20041;-62
2022/03/12 02:08:13;;;;;;;18.20;3.75;;;;;;;;;;5034677;28;20036;-62
2022/03/12 02:10:39;;;;;;;15.65;4.03;;;;;;;;;;5048935;28;20033;-62
2022/03/12 02:13:05;;;;;;;10.18;2.30;;;;;;;;;;5041421;28;20045;-62
2022/03/12 02:15:32;;;;;;;14.82;2.45;;;;;;;;;;5034969;28;20112;-62
2022/03/12 02:17:58;;;;;;;16.92;3.10;;;;;;;;;;5040574;28;20068;-65
2022/03/12 02:20:24;;;;;;;12.60;3.72;;;;;;;;;;5031364;28;20029;-65
2022/03/12 02:22:54;;;;;;;19.85;4.57;;;;;;;;;;5039635;28;20028;-65
2022/03/12 02:25:26;;;;;;;12.75;3.13;;;;;;;;;;5042946;28;20448;-65
2022/03/12 02:27:53;;;;;;;13.30;2.33;;;;;;;;;;5035596;28;20030;-65
2022/03/12 02:30:20;;;;;;;17.23;2.95;;;;;;;;;;5048118;28;20476;-65
2022/03/12 02:32:46;;;;;;;14.10;2.33;;;;;;;;;;5041700;28;20027;-65
2022/03/12 02:35:13;;;;;;;11.90;2.58;;;;;;;;;;5044835;28;20100;-65
2022/03/12 02:37:45;;;;;;;12.02;2.20;;;;;;;;;;5049249;28;20056;-65
2022/03/12 02:40:13;;;;;;;15.47;2.50;;;;;;;;;;5039708;28;20104;-65
2022/03/12 02:42:40;;;;;;;15.48;2.85;;;;;;;;;;5040061;28;20320;-65
2022/03/12 02:45:08;;;;;;;20.80;2.58;;;;;;;;;;5043736;28;20400;-65
2022/03/12 02:47:36;;;;;;;12.63;2.63;;;;;;;;;;5048040;28;20098;-65
2022/03/12 02:50:07;;;;;;;13.77;4.10;;;;;;;;;;5037885;28;20030;-65
2022/03/12 02:52:38;;;;;;;16.75;2.92;;;;;;;;;;5039282;28;20091;-65
2022/03/12 02:55:04;;;;;;;16.77;3.20;;;;;;;;;;5046179;28;20025;-65
2022/03/12 02:57:31;;;;;;;8.70;2.40;;;;;;;;;;5046403;28;20091;-65
2022/03/12 03:00:03;;;;;;;9.88;2.22;;;;;;;;;;5038825;28;20033;-65
2022/03/12 03:02:39;;;;;;;18.02;2.67;;;;;;;;;;5039087;28;20025;-65
2022/03/12 03:05:17;;;;;;;11.20;3.35;;;;;;;;;;5043633;28;20107;-65
2022/03/12 03:07:45;;;;;;;14.20;2.30;;;;;;;;;;5041099;28;20036;-65
2022/03/12 03:10:34;;;;;;;15.50;2.33;;;;;;;;;;5050756;28;20079;-65
2022/03/12 03:13:16;;;;;;;14.70;4.18;;;;;;;;;;5044554;28;20076;-65
2022/03/12 03:15:50;;;;;;;11.90;2.60;;;;;;;;;;5048417;28;20519;-65
2022/03/12 03:18:18;;;;;;;13.77;2.10;;;;;;;;;;5037421;28;20032;-65
2022/03/12 03:20:47;;;;;;;12.57;2.63;;;;;;;;;;5049030;28;20021;-65
2022/03/12 03:23:13;;;;;;;21.58;2.42;;;;;;;;;;5043565;28;20495;-65
2022/03/12 03:25:40;;;;;;;13.18;2.30;;;;;;;;;;5040713;28;20123;-65
2022/03/12 03:28:07;;;;;;;6.55;1.92;;;;;;;;;;5050522;28;20025;-65
2022/03/12 03:30:34;;;;;;;13.68;1.88;;;;;;;;;;5037650;28;20029;-65
2022/03/12 03:33:02;;;;;;;16.10;2.35;;;;;;;;;;5045456;28;20026;-65
2022/03/12 03:35:28;;;;;;;12.35;2.13;;;;;;;;;;5045051;28;20021;-65
2022/03/12 03:37:54;;;;;;;9.70;2.03;;;;;;;;;;5052753;28;20542;-65
2022/03/12 03:40:20;;;;;;;6.65;2.17;;;;;;;;;;5036325;28;20029;-65
2022/03/12 03:42:46;;;;;;;7.78;1.90;;;;;;;;;;5047861;28;20389;-65
2022/03/12 03:45:21;;;;;;;5.82;1.65;;;;;;;;;;5041771;28;20075;-65
2022/03/12 03:47:47;;;;;;;7.72;1.65;;;;;;;;;;5039968;28;20033;-65
2022/03/12 03:50:13;;;;;;;7.80;1.60;;;;;;;;;;5049962;28;20116;-65
2022/03/12 03:52:40;;;;;;;4.93;1.42;;;;;;;;;;5045367;28;20017;-65
2022/03/12 03:55:06;;;;;;;7.70;2.38;;;;;;;;;;5041303;28;20032;-65
2022/03/12 03:57:32;;;;;;;8.38;1.90;;;;;;;;;;5051835;28;20029;-65
2022/03/12 03:59:58;;;;;;;9.95;1.70;;;;;;;;;;5041370;28;20029;-65
2022/03/12 04:02:24;;;;;;;11.50;1.88;;;;;;;;;;5042365;28;20025;-65
2022/03/12 04:04:53;;;;;;;10.75;1.83;;;;;;;;;;5039407;28;20049;-65
2022/03/12 04:07:19;;;;;;;9.63;1.80;;;;;;;;;;5043762;28;20032;-65
2022/03/12 04:09:45;;;;;;;18.90;2.63;;;;;;;;;;5046325;28;20033;-65
2022/03/12 04:12:11;;;;;;;14.10;2.10;;;;;;;;;;5036637;28;20536;-65
2022/03/12 04:14:37;;;;;;;10.48;1.85;;;;;;;;;;5044692;28;20086;-65
2022/03/12 04:17:04;;;;;;;12.60;2.00;;;;;;;;;;5045572;28;20032;-65
2022/03/12 04:19:30;;;;;;;9.18;2.10;;;;;;;;;;5040404;28;20404;-65
2022/03/12 04:21:58;;;;;;;11.30;2.45;;;;;;;;;;5043310;28;20416;-65
2022/03/12 04:24:25;;;;;;;12.32;2.25;;;;;;;;;;5044058;28;20029;-65
2022/03/12 04:26:51;;;;;;;15.43;2.95;;;;;;;;;;5044243;28;20032;-65
2022/03/12 04:29:18;;;;;;;15.43;4.15;;;;;;;;;;5048627;28;20048;-65
2022/03/12 04:31:47;;;;;;;11.23;2.53;;;;;;;;;;5048821;28;20083;-65
2022/03/12 04:34:13;;;;;;;11.95;2.58;;;;;;;;;;5033525;28;20462;-75
2022/03/12 04:36:41;;;;;;;12.57;2.63;;;;;;;;;;5044515;28;20474;-65
2022/03/12 04:39:08;;;;;;;12.98;2.45;;;;;;;;;;5039553;28;20020;-65
2022/03/12 04:41:36;;;;;;;10.70;2.53;;;;;;;;;;5041723;28;20041;-65
2022/03/12 04:44:04;;;;;;;16.60;3.25;;;;;;;;;;5040132;28;20033;-65
2022/03/12 04:46:30;;;;;;;14.32;3.70;;;;;;;;;;5040296;28;20029;-64
2022/03/12 04:48:56;;;;;;;9.20;2.00;;;;;;;;;;5039710;28;20030;-65
2022/03/12 04:51:22;;;;;;;8.20;2.35;;;;;;;;;;5037198;28;20061;-64
2022/03/12 04:53:48;;;;;;;8.45;2.03;;;;;;;;;;5042509;28;20041;-64
2022/03/12 04:56:14;;;;;;;13.38;2.00;;;;;;;;;;5043433;28;20029;-65
2022/03/12 04:58:41;;;;;;;11.55;3.05;;;;;;;;;;5032185;28;20375;-64
2022/03/12 05:01:07;;;;;;;16.52;3.05;;;;;;;;;;5032139;28;20022;-62
2022/03/12 05:03:33;;;;;;;15.05;2.53;;;;;;;;;;5033349;28;20064;-66
2022/03/12 05:06:02;;;;;;;14.68;2.40;;;;;;;;;;5037609;28;20443;-65
2022/03/12 05:08:33;;;;;;;13.90;3.53;;;;;;;;;;5037741;28;20037;-66
2022/03/12 05:10:59;;;;;;;10.48;2.40;;;;;;;;;;5032638;28;20056;-66
2022/03/12 05:13:30;;;;;;;11.82;3.20;;;;;;;;;;5040082;28;20131;-66
2022/03/12 05:15:58;;;;;;;11.98;3.00;;;;;;;;;;5043474;28;20527;-65
2022/03/12 05:18:26;;;;;;;13.30;3.65;;;;;;;;;;5046987;28;20122;-65
2022/03/12 05:20:53;;;;;;;10.73;2.35;;;;;;;;;;5032300;28;20029;-65
2022/03/12 05:23:22;;;;;;;18.83;2.63;;;;;;;;;;5037659;28;20112;-65
2022/03/12 05:25:51;;;;;;;17.95;3.42;;;;;;;;;;5045931;28;20404;-65
2022/03/12 05:28:22;;;;;;;20.80;2.85;;;;;;;;;;5053556;28;20060;-65
2022/03/12 05:30:49;;;;;;;10.00;3.22;;;;;;;;;;5038933;28;20413;-65
2022/03/12 05:33:17;;;;;;;15.05;2.75;;;;;;;;;;5040764;28;20033;-65
2022/03/12 05:35:44;;;;;;;21.02;2.72;;;;;;;;;;5044877;28;20412;-65
2022/03/12 05:38:11;;;;;;;18.30;2.53;;;;;;;;;;5051066;28;20010;-65
2022/03/12 05:40:41;;;;;;;26.42;3.17;;;;;;;;;;5047921;28;20025;-65
2022/03/12 05:43:12;;;;;;;14.77;2.47;;;;;;;;;;5040977;28;20377;-65
2022/03/12 05:45:39;;;;;;;15.27;2.70;;;;;;;;;;5043046;28;20428;-65
2022/03/12 05:48:09;;;;;;;17.10;2.47;;;;;;;;;;5042159;28;20033;-65
2022/03/12 05:50:39;;;;;;;18.13;3.38;;;;;;;;;;5043764;28;20033;-65
2022/03/12 05:53:09;;;;;;;15.40;2.05;;;;;;;;;;5043625;28;20520;-65
2022/03/12 05:55:39;;;;;;;17.30;2.55;;;;;;;;;;5049354;28;20116;-65
2022/03/12 05:58:10;;;;;;;13.80;2.10;;;;;;;;;;5037312;28;20492;-65
2022/03/12 06:00:37;;;;;;;9.43;2.15;;;;;;;;;;5041126;28;20029;-65
2022/03/12 06:03:08;;;;;;;21.48;4.38;;;;;;;;;;5037222;28;20025;-65
2022/03/12 06:05:41;;;;;;;15.35;2.20;;;;;;;;;;5048306;28;20078;-65
2022/03/12 06:08:08;;;;;;;13.70;2.67;;;;;;;;;;5038129;28;20409;-65
2022/03/12 06:10:35;;;;;;;11.18;2.25;;;;;;;;;;5045999;28;20370;-65
2022/03/12 06:13:03;;;;;;;15.45;2.05;;;;;;;;;;5044555;28;21450;-65
2022/03/12 06:15:30;;;;;;;10.00;1.77;;;;;;;;;;5046455;28;20124;-65
2022/03/12 06:17:56;;;;;;;17.42;2.78;;;;;;;;;;5038079;28;20083;-65
2022/03/12 06:20:23;;;;;;;9.82;2.30;;;;;;;;;;5048275;28;20481;-65
2022/03/12 06:22:55;;;;;;;20.27;2.95;;;;;;;;;;5045032;28;20041;-65
2022/03/12 06:25:22;;;;;;;9.13;2.60;;;;;;;;;;5041743;28;20049;-65
2022/03/12 06:27:54;;;;;;;14.00;3.05;;;;;;;;;;5040484;28;20463;-65
2022/03/12 06:30:21;;;;;;;8.82;2.20;;;;;;;;;;5045375;28;20611;-65
2022/03/12 06:32:49;;;;;;;14.27;2.88;;;;;;;;;;5040310;28;20078;-65
2022/03/12 06:35:16;;;;;;;16.42;5.50;;;;;;;;;;5037587;28;20018;-65
2022/03/12 06:37:43;;;;;;;23.23;8.05;;;;;;;;;;5039580;28;20021;-65
2022/03/12 06:40:16;;;;;;;24.08;7.75;;;;;;;;;;5045149;28;20024;-66
2022/03/12 06:42:43;;;;;;;52.58;19.35;;;;;;;;;;5046309;28;20108;-66
2022/03/12 06:45:10;;;;;;;35.70;11.68;;;;;;;;;;5040121;28;20082;-65
2022/03/12 06:47:38;;;;;;;32.08;8.73;;;;;;;;;;5043034;28;20030;-65
2022/03/12 06:50:08;;;;;;;21.15;3.58;;;;;;;;;;5041262;28;20028;-65
2022/03/12 06:52:34;;;;;;;7.97;3.50;;;;;;;;;;5043987;28;20033;-65
2022/03/12 06:55:01;;;;;;;8.55;3.17;;;;;;;;;;5044469;28;20032;-65
2022/03/12 06:57:27;;;;;;;29.15;4.22;;;;;;;;;;5043539;28;20040;-65
2022/03/12 06:59:53;;;;;;;14.48;2.85;;;;;;;;;;5042681;28;20065;-65
2022/03/12 07:02:19;;;;;;;17.75;3.25;;;;;;;;;;5042657;28;20033;-65
2022/03/12 07:04:45;;;;;;;8.73;2.42;;;;;;;;;;5041870;28;20021;-65
2022/03/12 07:07:11;;;;;;;15.63;2.63;;;;;;;;;;5038699;28;20719;-65
2022/03/12 07:09:38;;;;;;;14.90;3.75;;;;;;;;;;5042229;28;20030;-65
2022/03/12 07:12:04;;;;;;;12.43;2.63;;;;;;;;;;5040102;28;20144;-65
2022/03/12 07:14:32;;;;;;;8.85;2.38;;;;;;;;;;5040454;28;20032;-65
2022/03/12 07:16:58;;;;;;;15.80;2.67;;;;;;;;;;5044318;28;20017;-65
2022/03/12 07:19:24;;;;;;;16.75;2.30;;;;;;;;;;5042760;28;20029;-65
2022/03/12 07:21:51;;;;;;;16.90;2.90;;;;;;;;;;5048417;28;20044;-70
2022/03/12 07:24:17;;;;;;;23.88;4.53;;;;;;;;;;5050481;28;20107;-65
2022/03/12 07:26:44;;;;;;;16.15;3.40;;;;;;;;;;5042349;28;20033;-65
2022/03/12 07:29:11;;;;;;;19.33;2.63;;;;;;;;;;5045565;28;20021;-65
2022/03/12 07:31:37;;;;;;;11.15;2.28;;;;;;;;;;5045668;28;20033;-65
2022/03/12 07:34:07;;;;;;;12.80;3.00;;;;;;;;;;5039486;28;20114;-65
2022/03/12 07:36:33;;;;;;;8.90;1.98;;;;;;;;;;5041349;28;20030;-65
2022/03/12 07:39:03;;;;;;;11.35;2.38;;;;;;;;;;5058101;28;20062;-64
2022/03/12 07:41:29;;;;;;;23.77;3.90;;;;;;;;;;5042043;28;20144;-64
2022/03/12 07:43:55;;;;;;;11.15;3.90;;;;;;;;;;5037074;28;20021;-65
2022/03/12 07:46:21;;;;;;;12.80;2.35;;;;;;;;;;5033460;28;20072;-65
2022/03/12 07:48:48;;;;;;;13.68;2.50;;;;;;;;;;5033562;28;20025;-65
2022/03/12 07:51:14;;;;;;;15.15;4.35;;;;;;;;;;5036987;28;20036;-65
2022/03/12 07:53:41;;;;;;;12.40;2.53;;;;;;;;;;5036684;28;20029;-65
2022/03/12 07:56:07;;;;;;;18.40;2.67;;;;;;;;;;5035015;28;20018;-65
2022/03/12 07:58:34;;;;;;;15.32;2.95;;;;;;;;;;5037393;28;20112;-65
2022/03/12 08:01:02;;;;;;;10.63;2.35;;;;;;;;;;5046280;28;20032;-65
2022/03/12 08:03:29;;;;;;;10.18;2.33;;;;;;;;;;5048968;28;20086;-65
2022/03/12 08:05:55;;;;;;;13.63;2.42;;;;;;;;;;5044703;28;20078;-66
2022/03/12 08:08:21;;;;;;;14.20;2.30;;;;;;;;;;5042598;28;20033;-65
2022/03/12 08:13:32;;;;;;;17.50;2.45;;;;;;;;;;5042674;28;20059;-65
2022/03/12 08:15:59;;;;;;;15.45;2.92;;;;;;;;;;5048294;28;20500;-65
2022/03/12 08:18:25;;;;;;;14.32;2.70;;;;;;;;;;5048463;28;20029;-65
2022/03/12 08:20:52;;;;;;;13.68;2.40;;;;;;;;;;5048240;28;20029;-65
2022/03/12 08:23:18;;;;;;;25.33;3.03;;;;;;;;;;5046317;28;20508;-65
2022/03/12 08:25:44;;;;;;;14.00;2.90;;;;;;;;;;5048405;28;20026;-65
2022/03/12 08:28:11;;;;;;;16.48;2.88;;;;;;;;;;5048156;28;20148;-65
2022/03/12 08:30:37;;;;;;;16.33;3.05;;;;;;;;;;5042646;28;20378;-65
2022/03/12 08:33:05;;;;;;;16.50;2.72;;;;;;;;;;5046783;28;20049;-65
2022/03/12 08:35:31;;;;;;;14.98;2.80;;;;;;;;;;5049303;28;20058;-65
2022/03/12 08:37:57;;;;;;;14.02;2.95;;;;;;;;;;5048143;28;20034;-65
2022/03/12 08:40:25;;;;;;;13.02;2.78;;;;;;;;;;5045158;28;20029;-65
2022/03/12 08:42:52;;;;;;;12.35;3.00;;;;;;;;;;5045051;28;20032;-65
2022/03/12 08:45:19;;;;;;;13.88;3.17;;;;;;;;;;5047769;28;20047;-65
2022/03/12 08:47:45;;;;;;;18.88;3.22;;;;;;;;;;5045400;28;20025;-64
2022/03/12 08:50:11;;;;;;;20.17;3.35;;;;;;;;;;5045104;28;20043;-64
2022/03/12 08:52:38;;;;;;;9.60;3.35;;;;;;;;;;5044405;28;20029;-64
2022/03/12 08:55:05;;;;;;;16.10;2.80;;;;;;;;;;5053484;28;20021;-66
2022/03/12 08:57:31;;;;;;;17.02;3.10;;;;;;;;;;5049915;28;20033;-65
2022/03/12 08:59:58;;;;;;;28.50;5.45;;;;;;;;;;5036926;28;20021;-71
2022/03/12 09:02:25;;;;;;;24.15;3.03;;;;;;;;;;5039627;28;20380;-66
2022/03/12 09:04:51;;;;;;;19.38;3.22;;;;;;;;;;5037993;28;20540;-65
2022/03/12 09:07:18;;;;;;;18.55;2.80;;;;;;;;;;5036351;28;20469;-65
2022/03/12 09:09:45;;;;;;;12.35;2.50;;;;;;;;;;5040134;28;20064;-65
2022/03/12 09:12:11;;;;;;;11.65;2.65;;;;;;;;;;5035050;28;20041;-64
2022/03/12 09:14:37;;;;;;;13.85;2.30;;;;;;;;;;5036582;28;20030;-64
2022/03/12 09:17:04;;;;;;;14.57;2.47;;;;;;;;;;5038212;28;20028;-64
2022/03/12 09:19:32;;;;;;;19.95;4.00;;;;;;;;;;5032366;28;20045;-64
2022/03/12 09:21:58;;;;;;;13.70;2.55;;;;;;;;;;5044431;28;20108;-64
2022/03/12 09:24:24;;;;;;;20.80;2.15;;;;;;;;;;5036591;28;20033;-65
2022/03/12 09:26:51;;;;;;;14.02;2.95;;;;;;;;;;5043729;28;20053;-65
2022/03/12 09:29:17;;;;;;;14.55;3.50;;;;;;;;;;5041742;28;20067;-66
2022/03/12 09:31:44;;;;;;;12.68;3.22;;;;;;;;;;5037330;28;20077;-66
2022/03/12 09:34:10;;;;;;;13.90;2.10;;;;;;;;;;5039074;28;20025;-65
2022/03/12 09:36:39;;;;;;;20.25;2.65;;;;;;;;;;5046501;28;20420;-64
2022/03/12 09:39:06;;;;;;;15.73;2.88;;;;;;;;;;5041331;28;20443;-64
2022/03/12 09:41:33;;;;;;;19.85;2.35;;;;;;;;;;5041423;28;20029;-64
2022/03/12 09:44:00;;;;;;;19.90;2.78;;;;;;;;;;5044774;28;20025;-64
2022/03/12 09:46:26;;;;;;;15.82;2.47;;;;;;;;;;5041649;28;20040;-64
2022/03/12 09:48:52;;;;;;;14.60;2.67;;;;;;;;;;5036818;28;20370;-65
2022/03/12 09:51:19;;;;;;;12.93;2.40;;;;;;;;;;5042784;28;20499;-64
2022/03/12 09:53:45;;;;;;;12.13;2.60;;;;;;;;;;5042549;28;20028;-65
2022/03/12 09:56:11;;;;;;;22.58;2.65;;;;;;;;;;5041051;28;20025;-65
2022/03/12 09:58:38;;;;;;;22.30;2.90;;;;;;;;;;5045686;28;20029;-64
2022/03/12 10:01:04;;;;;;;13.10;2.53;;;;;;;;;;5041020;28;20043;-64
2022/03/12 10:03:30;;;;;;;18.20;2.75;;;;;;;;;;5048298;28;20501;-64
2022/03/12 10:05:56;;;;;;;11.23;2.60;;;;;;;;;;5037788;28;20104;-64
2022/03/12 10:08:22;;;;;;;22.17;2.58;;;;;;;;;;5049109;28;20111;-65
2022/03/12 10:10:49;;;;;;;15.40;2.90;;;;;;;;;;5048136;28;20041;-64
2022/03/12 10:13:15;;;;;;;17.77;2.97;;;;;;;;;;5040768;28;20120;-65
2022/03/12 10:15:42;;;;;;;18.27;2.50;;;;;;;;;;5047300;28;20112;-65
2022/03/12 10:18:08;;;;;;;14.05;2.63;;;;;;;;;;5038927;28;20400;-65
2022/03/12 10:20:35;;;;;;;18.15;2.95;;;;;;;;;;5044006;28;20461;-65
2022/03/12 10:23:02;;;;;;;18.98;3.42;;;;;;;;;;5036825;28;20072;-65
2022/03/12 10:25:28;;;;;;;15.65;3.40;;;;;;;;;;5049021;28;20468;-64
2022/03/12 10:27:54;;;;;;;9.60;2.17;;;;;;;;;;5049338;28;20060;-64
2022/03/12 10:30:22;;;;;;;26.17;2.50;;;;;;;;;;5042376;28;20103;-64
2022/03/12 10:32:48;;;;;;;19.13;3.03;;;;;;;;;;5041516;28;20052;-64
2022/03/12 10:35:19;;;;;;;12.63;2.40;;;;;;;;;;5036466;28;20567;-64
2022/03/12 10:37:46;;;;;;;8.05;2.63;;;;;;;;;;5035940;28;20125;-64
2022/03/12 10:40:16;;;;;;;16.67;3.00;;;;;;;;;;5042861;28;20048;-64
2022/03/12 10:42:51;;;;;;;21.30;2.40;;;;;;;;;;5040350;28;20400;-65
2022/03/12 10:45:21;;;;;;;18.20;2.90;;;;;;;;;;5035356;28;20084;-65
2022/03/12 10:47:50;;;;;;;15.25;2.50;;;;;;;;;;5035651;28;20474;-65
2022/03/12 10:50:25;;;;;;;20.17;3.00;;;;;;;;;;5034954;28;20035;-65
2022/03/12 10:52:52;;;;;;;9.48;2.28;;;;;;;;;;5038599;28;20432;-65
2022/03/12 10:55:27;;;;;;;16.33;3.05;;;;;;;;;;5039504;28;20535;-72
2022/03/12 10:58:01;;;;;;;15.90;2.67;;;;;;;;;;5048525;28;20028;-64
2022/03/12 11:00:29;;;;;;;10.95;2.20;;;;;;;;;;5047106;28;20113;-64
2022/03/12 11:02:57;;;;;;;11.55;2.55;;;;;;;;;;5055176;28;20021;-64
2022/03/12 11:05:35;;;;;;;15.27;2.45;;;;;;;;;;5041712;28;20441;-64
2022/03/12 11:08:06;;;;;;;11.98;2.78;;;;;;;;;;5042155;28;20025;-64
2022/03/12 11:10:33;;;;;;;13.98;2.33;;;;;;;;;;5042509;28;20032;-64
2022/03/12 11:13:01;;;;;;;15.82;2.58;;;;;;;;;;5050830;28;20053;-64
2022/03/12 11:15:28;;;;;;;15.30;2.63;;;;;;;;;;5052573;28;20063;-64
2022/03/12 11:17:54;;;;;;;14.77;3.40;;;;;;;;;;5046826;28;20021;-64
2022/03/12 11:20:27;;;;;;;20.20;2.83;;;;;;;;;;5034972;28;20057;-65
2022/03/12 11:23:12;;;;;;;12.82;2.00;;;;;;;;;;5037211;28;20037;-65
2022/03/12 11:25:54;;;;;;;11.65;2.30;;;;;;;;;;5048014;28;20389;-65
2022/03/12 11:28:20;;;;;;;14.10;2.67;;;;;;;;;;5046070;28;20057;-65
2022/03/12 11:30:47;;;;;;;13.55;2.25;;;;;;;;;;5041544;28;20026;-65
2022/03/12 11:33:14;;;;;;;7.97;1.95;;;;;;;;;;5045378;28;20036;-65
2022/03/12 11:35:45;;;;;;;13.88;2.88;;;;;;;;;;5044653;28;20100;-65
2022/03/12 11:38:22;;;;;;;11.38;2.08;;;;;;;;;;5037340;28;20037;-65
2022/03/12 11:40:53;;;;;;;13.85;2.25;;;;;;;;;;5043002;28;20112;-65
2022/03/12 11:43:27;;;;;;;15.43;2.03;;;;;;;;;;5038453;28;20038;-65
2022/03/12 11:45:55;;;;;;;23.90;2.90;;;;;;;;;;5038309;28;20031;-65
2022/03/12 11:48:23;;;;;;;13.80;2.45;;;;;;;;;;5049627;28;20059;-65
2022/03/12 11:50:49;;;;;;;14.35;2.28;;;;;;;;;;5046154;28;20124;-65
2022/03/12 11:53:16;;;;;;;16.63;3.10;;;;;;;;;;5043462;28;20033;-65
2022/03/12 11:55:43;;;;;;;14.55;2.78;;;;;;;;;;5046457;28;20021;-65
2022/03/12 11:58:09;;;;;;;11.75;2.85;;;;;;;;;;5040069;28;20543;-65
2022/03/12 12:00:35;;;;;;;13.35;2.55;;;;;;;;;;5046375;28;20164;-65
2022/03/12 12:03:01;;;;;;;10.93;1.85;;;;;;;;;;5042881;28;20018;-65
2022/03/12 12:05:29;;;;;;;18.75;2.88;;;;;;;;;;5044041;28;20041;-66
2022/03/12 12:07:55;;;;;;;11.88;2.20;;;;;;;;;;5040364;28;20397;-66
2022/03/12 12:10:29;;;;;;;16.50;2.20;;;;;;;;;;5045780;28;20432;-66
2022/03/12 12:12:58;;;;;;;15.32;2.30;;;;;;;;;;5042631;28;20042;-66
2022/03/12 12:15:34;;;;;;;9.80;2.03;;;;;;;;;;5044202;28;20076;-66
2022/03/12 12:18:02;;;;;;;12.55;2.83;;;;;;;;;;5043954;28;20017;-65
2022/03/12 12:20:30;;;;;;;10.68;2.20;;;;;;;;;;5042442;28;20025;-65
2022/03/12 12:23:00;;;;;;;8.77;2.05;;;;;;;;;;5045077;28;20039;-66
2022/03/12 12:25:30;;;;;;;15.15;2.42;;;;;;;;;;5045489;28;20496;-66
2022/03/12 12:27:56;;;;;;;8.15;1.90;;;;;;;;;;5046002;28;20048;-66
2022/03/12 12:30:25;;;;;;;7.18;1.77;;;;;;;;;;5042625;28;20481;-66
2022/03/12 12:32:52;;;;;;;9.75;1.90;;;;;;;;;;5041621;28;20043;-65
2022/03/12 12:35:22;;;;;;;10.90;2.03;;;;;;;;;;5040567;28;20566;-65
2022/03/12 12:37:53;;;;;;;9.02;1.63;;;;;;;;;;5041580;28;20055;-65
2022/03/12 12:40:27;;;;;;;16.80;2.30;;;;;;;;;;5042940;28;20037;-65
2022/03/12 12:42:55;;;;;;;6.15;1.50;;;;;;;;;;5043403;28;20162;-65
2022/03/12 12:45:22;;;;;;;12.48;2.15;;;;;;;;;;5038976;28;20413;-65
2022/03/12 12:47:57;;;;;;;11.07;2.55;;;;;;;;;;5042562;28;20500;-65
2022/03/12 12:50:25;;;;;;;10.00;2.42;;;;;;;;;;5042778;28;20034;-65
2022/03/12 12:53:13;;;;;;;11.90;2.00;;;;;;;;;;5044935;28;20385;-66
2022/03/12 12:55:42;;;;;;;14.48;2.85;;;;;;;;;;5042964;28;20469;-66
2022/03/12 12:58:09;;;;;;;13.15;2.45;;;;;;;;;;5043476;28;20436;-65
2022/03/12 13:00:37;;;;;;;14.80;2.28;;;;;;;;;;5038232;28;20059;-65
2022/03/12 13:03:11;;;;;;;15.07;2.42;;;;;;;;;;5037792;28;20029;-65
2022/03/12 13:05:52;;;;;;;13.80;2.28;;;;;;;;;;5039480;28;20038;-65
2022/03/12 13:08:22;;;;;;;12.95;3.30;;;;;;;;;;5034021;28;20041;-65
2022/03/12 13:10:48;;;;;;;12.13;2.47;;;;;;;;;;5033534;28;20125;-65
2022/03/12 13:13:17;;;;;;;11.30;2.45;;;;;;;;;;5034590;28;20045;-65
2022/03/12 13:15:45;;;;;;;14.38;2.75;;;;;;;;;;5033643;28;20470;-65
2022/03/12 13:18:19;;;;;;;17.38;3.17;;;;;;;;;;5041185;28;20028;-65
2022/03/12 13:20:53;;;;;;;17.63;3.05;;;;;;;;;;5032865;28;20039;-65
2022/03/12 13:23:21;;;;;;;14.77;2.47;;;;;;;;;;5041212;28;20151;-64
2022/03/12 13:25:49;;;;;;;12.18;2.25;;;;;;;;;;5044200;28;20059;-65
2022/03/12 13:28:39;;;;;;;12.63;2.78;;;;;;;;;;5047580;28;20436;-73
2022/03/12 13:31:14;;;;;;;10.55;2.28;;;;;;;;;;5039084;28;20038;-66
2022/03/12 13:33:40;;;;;;;15.00;2.55;;;;;;;;;;5035379;28;20354;-70
2022/03/12 13:36:08;;;;;;;20.88;2.60;;;;;;;;;;5045483;28;20508;-68
2022/03/12 13:38:34;;;;;;;21.52;3.03;;;;;;;;;;5032438;28;20115;-66
2022/03/12 13:41:00;;;;;;;12.68;2.78;;;;;;;;;;5039509;28;20397;-68
2022/03/12 13:43:27;;;;;;;14.98;2.55;;;;;;;;;;5049859;28;20567;-65
2022/03/12 13:46:00;;;;;;;8.18;2.17;;;;;;;;;;5042140;28;20025;-72
2022/03/12 13:48:28;;;;;;;11.40;1.90;;;;;;;;;;5048122;28;20044;-64
2022/03/12 13:50:57;;;;;;;10.90;2.28;;;;;;;;;;5035259;28;20473;-65
2022/03/12 13:53:30;;;;;;;12.40;2.35;;;;;;;;;;5042610;28;20029;-67
2022/03/12 13:56:18;;;;;;;17.33;3.22;;;;;;;;;;5038788;28;20032;-65
2022/03/12 13:58:46;;;;;;;8.82;2.70;;;;;;;;;;5043238;28;20445;-70
2022/03/12 14:01:29;;;;;;;13.93;2.22;;;;;;;;;;5043911;28;20498;-65
2022/03/12 14:03:55;;;;;;;13.27;2.38;;;;;;;;;;5039281;28;20486;-72
2022/03/12 14:06:28;;;;;;;12.48;2.35;;;;;;;;;;5048910;28;20021;-67
2022/03/12 14:08:59;;;;;;;14.45;2.10;;;;;;;;;;5038243;28;20108;-64
2022/03/12 14:11:29;;;;;;;8.88;2.15;;;;;;;;;;5038854;28;20044;-65
2022/03/12 14:13:58;;;;;;;15.30;1.80;;;;;;;;;;5035505;28;20041;-75
2022/03/12 14:16:25;;;;;;;9.60;2.53;;;;;;;;;;5032885;28;20759;-68
2022/03/12 14:18:55;;;;;;;9.27;2.13;;;;;;;;;;5044729;28;20504;-68
2022/03/12 14:21:36;;;;;;;12.65;2.22;;;;;;;;;;5037381;28;20030;-70
2022/03/12 14:24:10;;;;;;;15.43;2.55;;;;;;;;;;5035243;28;20071;-71
2022/03/12 14:26:43;;;;;;;16.77;2.80;;;;;;;;;;5054519;28;20116;-66
2022/03/12 14:29:09;;;;;;;17.25;2.40;;;;;;;;;;5053570;28;20045;-67
2022/03/12 14:31:38;;;;;;;13.13;2.75;;;;;;;;;;5045699;28;20033;-64
2022/03/12 14:34:05;;;;;;;13.15;2.45;;;;;;;;;;5053548;28;20022;-64
2022/03/12 14:36:32;;;;;;;15.60;3.83;;;;;;;;;;5053969;28;20534;-64
2022/03/12 14:39:02;;;;;;;7.15;2.25;;;;;;;;;;5047821;28;20033;-64